createdAt,value
2018-01-22T00:02:16.732Z,0.0
2018-01-22T00:13:03.054Z,0.0
2018-01-22T00:23:21.000Z,0.0
2018-01-22T00:33:41.739Z,0.0
2018-01-22T00:44:00.079Z,0.0
2018-01-22T00:54:21.335Z,0.0
2018-01-22T01:05:05.982Z,0.0
2018-01-22T01:15:19.585Z,0.0
2018-01-22T01:25:33.567Z,0.0
2018-01-22T01:36:19.143Z,0.0
2018-01-22T01:46:32.702Z,0.0
2018-01-22T01:56:43.647Z,0.0
2018-01-22T02:06:57.057Z,0.0
2018-01-22T02:17:11.205Z,0.0
2018-01-22T02:27:25.596Z,0.0
2018-01-22T02:37:39.591Z,0.0
2018-01-22T02:47:53.137Z,0.0
2018-01-22T02:58:07.078Z,0.0
2018-01-22T03:08:20.307Z,0.0
2018-01-22T03:18:34.036Z,0.0
2018-01-22T03:28:47.957Z,0.0
2018-01-22T03:39:02.873Z,0.0
2018-01-22T03:49:14.139Z,0.0
2018-01-22T03:59:27.470Z,0.0
2018-01-22T04:10:12.548Z,0.0
2018-01-22T04:21:01.009Z,0.0
2018-01-22T04:31:14.519Z,0.0
2018-01-22T04:41:28.547Z,0.0
2018-01-22T04:51:41.905Z,0.0
2018-01-22T05:01:56.383Z,0.0
2018-01-22T05:12:10.517Z,0.0
2018-01-22T05:22:24.477Z,0.0
2018-01-22T05:32:38.554Z,0.0
2018-01-22T05:42:52.124Z,0.0
2018-01-22T05:53:06.017Z,0.0
2018-01-22T06:03:18.311Z,0.0
2018-01-22T06:14:02.806Z,0.0
2018-01-22T06:24:16.289Z,0.0
2018-01-22T06:34:29.587Z,0.0
2018-01-22T06:44:42.790Z,0.0
2018-01-22T06:54:55.942Z,0.0
2018-01-22T07:05:09.482Z,4.0
2018-01-22T07:15:23.369Z,12.0
2018-01-22T07:25:37.411Z,28.0
2018-01-22T07:35:50.713Z,44.0
2018-01-22T07:46:35.088Z,68.0
2018-01-22T07:56:48.730Z,88.0
2018-01-22T08:07:33.188Z,124.0
2018-01-22T08:17:46.619Z,184.0
2018-01-22T08:27:59.838Z,228.0
2018-01-22T08:38:11.520Z,556.0
2018-01-22T08:48:25.484Z,424.0
2018-01-22T08:58:39.591Z,644.0
2018-01-22T09:09:24.271Z,516.0
2018-01-22T09:20:09.237Z,392.0
2018-01-22T09:30:57.785Z,556.0
2018-01-22T09:41:12.390Z,532.0
2018-01-22T09:51:26.297Z,976.0
2018-01-22T10:01:50.733Z,904.0
2018-01-22T10:22:19.322Z,1024.0
2018-01-22T10:32:34.078Z,1124.0
2018-01-22T10:42:47.958Z,960.0
2018-01-22T10:53:02.005Z,1752.0
2018-01-22T11:03:16.796Z,1748.0
2018-01-22T11:14:14.576Z,924.0
2018-01-22T11:24:30.795Z,1380.0
2018-01-22T11:34:49.730Z,2916.0
2018-01-22T11:45:03.774Z,2824.0
2018-01-22T11:55:24.244Z,3200.0
2018-01-22T12:05:37.975Z,2804.0
2018-01-22T12:15:51.320Z,2488.0
2018-01-22T12:26:05.939Z,4752.0
2018-01-22T12:36:32.437Z,3412.0
2018-01-22T12:46:46.609Z,2436.0
2018-01-22T12:57:34.435Z,2060.0
2018-01-22T13:08:21.566Z,2052.0
2018-01-22T13:19:12.522Z,2680.0
2018-01-22T13:29:27.656Z,3304.0
2018-01-22T13:39:42.316Z,2324.0
2018-01-22T13:51:03.265Z,4792.0
2018-01-22T14:01:17.639Z,6524.0
2018-01-22T14:11:32.375Z,3596.0
2018-01-22T14:21:46.885Z,1680.0
2018-01-22T14:32:32.707Z,1636.0
2018-01-22T14:42:48.521Z,1160.0
2018-01-22T14:53:03.045Z,784.0
2018-01-22T15:03:42.227Z,680.0
2018-01-22T15:13:56.118Z,456.0
2018-01-22T15:24:10.651Z,364.0
2018-01-22T15:34:24.881Z,276.0
2018-01-22T15:44:38.840Z,144.0
2018-01-22T15:54:53.354Z,84.0
2018-01-22T16:05:24.736Z,28.0
2018-01-22T16:32:29.466Z,0.0
2018-01-22T16:42:43.423Z,0.0
2018-01-22T16:52:57.424Z,0.0
2018-01-22T17:03:44.701Z,0.0
2018-01-22T17:13:58.769Z,0.0
2018-01-22T17:25:04.832Z,0.0
2018-01-22T17:35:50.794Z,0.0
2018-01-22T17:46:39.028Z,0.0
2018-01-22T17:58:16.732Z,0.0
2018-01-22T18:21:41.789Z,0.0
2018-01-22T18:34:25.248Z,0.0
2018-01-22T18:47:54.984Z,0.0
2018-01-22T19:10:37.733Z,0.0
2018-01-22T19:21:30.705Z,0.0
2018-01-22T19:33:23.072Z,0.0
2018-01-22T19:45:52.960Z,0.0
2018-01-22T20:22:56.870Z,0.0
2018-01-22T20:33:34.351Z,0.0
2018-01-22T21:15:03.437Z,0.0
2018-01-22T21:25:54.825Z,0.0
2018-01-22T21:36:09.821Z,0.0
2018-01-22T21:46:54.871Z,0.0
2018-01-22T21:57:10.748Z,0.0
2018-01-22T22:07:59.118Z,0.0
2018-01-22T22:20:22.566Z,0.0
2018-01-22T22:31:07.912Z,0.0
2018-01-22T22:41:57.652Z,0.0
2018-01-22T22:52:12.846Z,0.0
2018-01-22T23:02:31.059Z,0.0
2018-01-22T23:13:17.127Z,0.0
2018-01-22T23:24:20.833Z,0.0
2018-01-22T23:35:06.843Z,0.0
2018-01-22T23:47:37.720Z,0.0
2018-01-22T23:58:31.817Z,0.0
